createdAt,value
2022-11-05T00:05:11.366Z,97396.38
2022-11-05T00:10:37.547Z,97406.95
2022-11-05T00:16:18.776Z,97407.52
2022-11-05T00:22:00.850Z,97412.16
2022-11-05T00:27:30.363Z,97419.77
2022-11-05T00:32:54.346Z,97428.88
2022-11-05T00:38:17.166Z,97443.91
2022-11-05T00:43:58.741Z,97449.20
2022-11-05T00:49:32.043Z,97445.78
2022-11-05T00:54:56.221Z,97453.21
2022-11-05T01:00:19.297Z,97458.33
2022-11-05T01:05:44.856Z,97454.73
2022-11-05T01:11:33.981Z,97450.30
2022-11-05T01:17:34.192Z,97451.73
2022-11-05T01:47:22.305Z,97464.96
2022-11-05T01:53:07.284Z,97456.23
2022-11-05T01:59:03.855Z,97464.91
2022-11-05T02:05:11.822Z,97474.48
2022-11-05T02:11:50.139Z,97480.22
2022-11-05T02:18:14.530Z,97499.40
2022-11-05T02:36:43.900Z,97529.16
2022-11-05T02:49:46.611Z,97540.98
2022-11-05T03:14:32.697Z,97562.07
2022-11-05T03:26:49.523Z,97585.64
2022-11-05T03:32:41.131Z,97594.96
2022-11-05T03:44:53.537Z,97599.96
2022-11-05T04:03:57.325Z,97615.09
2022-11-05T04:10:06.397Z,97627.80
2022-11-05T04:15:57.260Z,97643.40
2022-11-05T04:22:07.652Z,97638.02
2022-11-05T04:41:29.267Z,97651.13
2022-11-05T04:47:25.469Z,97658.24
2022-11-05T04:59:41.369Z,97674.99
2022-11-05T05:05:42.966Z,97679.20
2022-11-05T05:17:49.089Z,97688.63
2022-11-05T05:23:50.232Z,97691.10
2022-11-05T05:35:57.662Z,97706.64
2022-11-05T06:31:56.885Z,97787.23
2022-11-05T06:43:55.300Z,97815.04
2022-11-05T06:55:40.172Z,97839.79
2022-11-05T07:01:46.605Z,97849.83
2022-11-05T07:08:29.608Z,97858.38
2022-11-05T07:14:11.817Z,97862.06
2022-11-05T07:19:33.937Z,97872.55
2022-11-05T07:24:55.665Z,97883.05
2022-11-05T07:30:17.982Z,97884.66
2022-11-05T07:35:39.945Z,97888.79
2022-11-05T07:41:01.873Z,97893.38
2022-11-05T07:46:23.834Z,97899.89
2022-11-05T07:51:45.697Z,97919.59
2022-11-05T07:57:07.334Z,97922.36
2022-11-05T08:02:30.688Z,97920.58
2022-11-05T08:07:57.220Z,97917.76
2022-11-05T08:13:18.928Z,97903.77
2022-11-05T08:18:40.971Z,97909.48
2022-11-05T08:24:02.733Z,97918.56
2022-11-05T08:29:24.326Z,97928.16
2022-11-05T08:34:46.196Z,97930.14
2022-11-05T08:41:11.750Z,97942.97
2022-11-05T08:47:57.079Z,97942.64
2022-11-05T08:54:50.020Z,97953.73
2022-11-05T09:01:46.906Z,97963.39
2022-11-05T09:07:59.441Z,97954.27
2022-11-05T09:13:28.592Z,97954.96
2022-11-05T09:18:59.595Z,97955.59
2022-11-05T09:24:40.920Z,97961.14
2022-11-05T09:30:15.320Z,97966.63
2022-11-05T09:35:54.200Z,97969.45
2022-11-05T09:41:49.383Z,97974.95
2022-11-05T09:47:39.519Z,97979.33
2022-11-05T09:53:32.190Z,97989.45
2022-11-05T10:10:53.654Z,97995.55
2022-11-05T10:16:32.395Z,98004.08
2022-11-05T10:22:23.185Z,98001.91
2022-11-05T10:34:21.378Z,98023.92
2022-11-05T10:46:09.525Z,98030.98
2022-11-05T10:51:50.302Z,98026.30
2022-11-05T10:57:56.291Z,98025.11
2022-11-05T11:09:42.634Z,98031.63
2022-11-05T11:33:36.428Z,98050.30
2022-11-05T11:39:23.412Z,98058.55
2022-11-05T11:45:31.565Z,98058.52
2022-11-05T11:52:10.668Z,98058.31
2022-11-05T11:58:06.958Z,98060.86
2022-11-05T12:03:43.675Z,98059.39
2022-11-05T12:09:40.714Z,98068.02
2022-11-05T12:15:35.261Z,98072.09
2022-11-05T12:21:10.227Z,98079.61
2022-11-05T12:26:43.612Z,98093.45
2022-11-05T12:32:44.652Z,98092.85
2022-11-05T12:39:04.667Z,98097.58
2022-11-05T12:44:58.502Z,98107.54
2022-11-05T12:50:40.622Z,98118.20
2022-11-05T12:56:11.541Z,98121.95
2022-11-05T13:01:37.750Z,98118.19
2022-11-05T13:07:05.062Z,98113.92
2022-11-05T13:12:31.626Z,98125.11
2022-11-05T13:18:05.452Z,98137.16
2022-11-05T13:23:39.949Z,98152.14
2022-11-05T13:29:12.079Z,98158.29
2022-11-05T13:34:37.424Z,98163.11
2022-11-05T13:40:02.570Z,98173.33
2022-11-05T13:45:53.969Z,98172.64
2022-11-05T13:52:05.527Z,98173.33
2022-11-05T13:57:34.675Z,98172.80
2022-11-05T14:03:01.696Z,98173.48
2022-11-05T14:08:27.383Z,98181.88
2022-11-05T14:13:54.841Z,98187.27
2022-11-05T14:26:22.274Z,98220.91
2022-11-05T14:32:26.989Z,98229.98
2022-11-05T14:56:23.958Z,98263.65
2022-11-05T15:02:35.872Z,98262.20
2022-11-05T15:14:43.733Z,98275.98
2022-11-05T15:20:50.552Z,98288.14
2022-11-05T15:27:16.895Z,98289.72
2022-11-05T15:33:47.911Z,98299.25
2022-11-05T15:46:25.868Z,98313.80
2022-11-05T16:04:21.925Z,98331.47
2022-11-05T16:10:22.173Z,98330.61
2022-11-05T16:23:35.351Z,98333.38
2022-11-05T16:37:52.097Z,98355.85
2022-11-05T16:45:09.581Z,98363.61
2022-11-05T16:52:07.948Z,98377.19
2022-11-05T16:58:53.940Z,98391.77
2022-11-05T17:12:50.442Z,98393.64
2022-11-05T17:19:58.574Z,98390.39
2022-11-05T17:39:41.769Z,98398.45
2022-11-05T17:46:27.737Z,98393.23
2022-11-05T17:53:49.428Z,98413.00
2022-11-05T18:12:01.794Z,98425.57
2022-11-05T18:36:58.848Z,98446.45
2022-11-05T18:43:25.439Z,98437.71
2022-11-05T18:56:26.352Z,98458.14
2022-11-05T19:03:15.936Z,98462.96
2022-11-05T19:10:08.391Z,98462.41
2022-11-05T19:23:27.947Z,98484.41
2022-11-05T19:28:59.867Z,98489.59
2022-11-05T19:34:40.165Z,98508.73
2022-11-05T19:41:12.215Z,98509.77
2022-11-05T19:46:59.082Z,98522.77
2022-11-05T19:53:54.557Z,98522.23
2022-11-05T19:59:06.673Z,98531.42
2022-11-05T20:05:33.502Z,98535.65
2022-11-05T20:12:06.061Z,98541.30
2022-11-05T20:19:53.998Z,98558.66
2022-11-05T20:26:28.907Z,98563.36
2022-11-05T20:32:50.108Z,98566.73
2022-11-05T20:38:52.344Z,98565.72
2022-11-05T20:45:22.666Z,98573.96
2022-11-05T20:51:51.044Z,98581.55
2022-11-05T20:58:18.031Z,98590.69
2022-11-05T21:04:46.197Z,98600.63
2022-11-05T21:11:16.406Z,98599.58
2022-11-05T21:17:41.716Z,98593.61
2022-11-05T21:25:45.879Z,98593.09
2022-11-05T21:38:41.706Z,98590.98
2022-11-05T21:44:49.032Z,98601.25
2022-11-05T21:50:41.740Z,98595.15
2022-11-05T21:56:41.789Z,98594.51
2022-11-05T22:02:05.457Z,98592.23
2022-11-05T22:07:34.132Z,98596.27
2022-11-05T22:12:56.379Z,98604.51
2022-11-05T22:18:18.954Z,98600.68
2022-11-05T22:23:41.948Z,98603.36
2022-11-05T22:29:22.884Z,98603.61
2022-11-05T22:34:57.839Z,98604.27
2022-11-05T22:40:23.821Z,98604.10
2022-11-05T22:45:46.384Z,98604.08
2022-11-05T22:51:14.699Z,98599.96
2022-11-05T22:56:42.006Z,98604.65
2022-11-05T23:02:09.253Z,98608.04
2022-11-05T23:07:50.919Z,98611.73
2022-11-05T23:13:13.252Z,98616.31
2022-11-05T23:19:04.502Z,98620.04
2022-11-05T23:24:26.670Z,98613.27
2022-11-05T23:29:48.551Z,98620.92
2022-11-05T23:35:10.234Z,98624.73
2022-11-05T23:40:52.750Z,98628.33
2022-11-05T23:46:37.233Z,98625.14
2022-11-05T23:52:01.697Z,98626.44
2022-11-05T23:57:25.499Z,98629.59
